sensor_id;sensor_type;location;lat;lon;timestamp;temperature;humidity
48744;DHT22;34538;48.836;9.174;2022-12-29T00:01:26;9.50;99.90
48744;DHT22;34538;48.836;9.174;2022-12-29T00:03:53;9.50;99.90
48744;DHT22;34538;48.836;9.174;2022-12-29T00:06:21;9.50;99.90
48744;DHT22;34538;48.836;9.174;2022-12-29T00:08:48;9.50;99.90
48744;DHT22;34538;48.836;9.174;2022-12-29T00:11:16;9.50;99.90
48744;DHT22;34538;48.836;9.174;2022-12-29T00:13:43;9.50;99.90
48744;DHT22;34538;48.836;9.174;2022-12-29T00:16:28;9.60;99.90
48744;DHT22;34538;48.836;9.174;2022-12-29T00:18:55;9.60;99.90
48744;DHT22;34538;48.836;9.174;2022-12-29T00:21:24;9.60;99.90
48744;DHT22;34538;48.836;9.174;2022-12-29T00:24:12;9.60;99.90
48744;DHT22;34538;48.836;9.174;2022-12-29T00:27:03;9.60;99.90
48744;DHT22;34538;48.836;9.174;2022-12-29T00:29:52;9.70;99.90
48744;DHT22;34538;48.836;9.174;2022-12-29T00:32:37;9.70;99.90
48744;DHT22;34538;48.836;9.174;2022-12-29T00:35:25;9.70;99.90
48744;DHT22;34538;48.836;9.174;2022-12-29T00:37:55;9.70;99.90
48744;DHT22;34538;48.836;9.174;2022-12-29T00:40:40;9.80;99.90
48744;DHT22;34538;48.836;9.174;2022-12-29T00:43:24;9.80;99.90
48744;DHT22;34538;48.836;9.174;2022-12-29T00:46:09;9.90;99.90
48744;DHT22;34538;48.836;9.174;2022-12-29T00:48:36;9.90;99.90
48744;DHT22;34538;48.836;9.174;2022-12-29T00:51:20;9.90;99.90
48744;DHT22;34538;48.836;9.174;2022-12-29T00:53:48;10.00;99.90
48744;DHT22;34538;48.836;9.174;2022-12-29T00:56:15;10.00;99.90
48744;DHT22;34538;48.836;9.174;2022-12-29T00:58:42;10.00;99.90
48744;DHT22;34538;48.836;9.174;2022-12-29T01:01:09;10.00;99.90
48744;DHT22;34538;48.836;9.174;2022-12-29T01:03:37;10.00;99.90
48744;DHT22;34538;48.836;9.174;2022-12-29T01:06:08;10.10;99.90
48744;DHT22;34538;48.836;9.174;2022-12-29T01:08:37;10.10;99.90
48744;DHT22;34538;48.836;9.174;2022-12-29T01:11:07;10.10;99.90
48744;DHT22;34538;48.836;9.174;2022-12-29T01:13:34;10.10;99.90
48744;DHT22;34538;48.836;9.174;2022-12-29T01:16:01;10.10;99.90
48744;DHT22;34538;48.836;9.174;2022-12-29T01:18:28;10.20;99.90
48744;DHT22;34538;48.836;9.174;2022-12-29T01:20:59;10.20;99.90
48744;DHT22;34538;48.836;9.174;2022-12-29T01:23:26;10.20;99.90
48744;DHT22;34538;48.836;9.174;2022-12-29T01:25:53;10.20;99.90
48744;DHT22;34538;48.836;9.174;2022-12-29T01:28:22;10.10;99.90
48744;DHT22;34538;48.836;9.174;2022-12-29T01:30:49;10.10;99.90
48744;DHT22;34538;48.836;9.174;2022-12-29T01:33:16;10.10;99.90
48744;DHT22;34538;48.836;9.174;2022-12-29T01:35:43;10.10;99.90
48744;DHT22;34538;48.836;9.174;2022-12-29T01:38:10;10.10;99.90
48744;DHT22;34538;48.836;9.174;2022-12-29T01:40:44;10.20;99.90
48744;DHT22;34538;48.836;9.174;2022-12-29T01:43:12;10.10;99.90
48744;DHT22;34538;48.836;9.174;2022-12-29T01:45:45;10.10;99.90
48744;DHT22;34538;48.836;9.174;2022-12-29T01:48:15;10.10;99.90
48744;DHT22;34538;48.836;9.174;2022-12-29T01:50:49;10.10;99.90
48744;DHT22;34538;48.836;9.174;2022-12-29T01:53:21;10.10;99.90
48744;DHT22;34538;48.836;9.174;2022-12-29T01:55:52;10.10;99.90
48744;DHT22;34538;48.836;9.174;2022-12-29T01:58:23;10.00;99.90
48744;DHT22;34538;48.836;9.174;2022-12-29T02:00:54;10.00;99.90
48744;DHT22;34538;48.836;9.174;2022-12-29T02:03:23;10.00;99.90
48744;DHT22;34538;48.836;9.174;2022-12-29T02:05:55;10.00;99.90
48744;DHT22;34538;48.836;9.174;2022-12-29T02:08:26;10.00;99.90
48744;DHT22;34538;48.836;9.174;2022-12-29T02:10:53;10.00;99.90
48744;DHT22;34538;48.836;9.174;2022-12-29T02:13:24;10.00;99.90
48744;DHT22;34538;48.836;9.174;2022-12-29T02:15:59;10.00;99.90
48744;DHT22;34538;48.836;9.174;2022-12-29T02:18:34;10.00;99.90
48744;DHT22;34538;48.836;9.174;2022-12-29T02:21:36;9.90;99.90
48744;DHT22;34538;48.836;9.174;2022-12-29T02:30:35;10.00;99.90
48744;DHT22;34538;48.836;9.174;2022-12-29T02:33:11;10.00;99.90
48744;DHT22;34538;48.836;9.174;2022-12-29T02:35:45;10.10;99.90
48744;DHT22;34538;48.836;9.174;2022-12-29T02:38:26;10.10;99.90
48744;DHT22;34538;48.836;9.174;2022-12-29T02:41:02;10.10;99.90
48744;DHT22;34538;48.836;9.174;2022-12-29T02:43:35;10.10;99.90
48744;DHT22;34538;48.836;9.174;2022-12-29T02:46:10;10.10;99.90
48744;DHT22;34538;48.836;9.174;2022-12-29T02:48:45;10.20;99.90
48744;DHT22;34538;48.836;9.174;2022-12-29T02:51:19;10.10;99.90
48744;DHT22;34538;48.836;9.174;2022-12-29T02:53:47;10.20;99.90
48744;DHT22;34538;48.836;9.174;2022-12-29T02:56:32;10.10;99.90
48744;DHT22;34538;48.836;9.174;2022-12-29T02:58:58;10.20;99.90
48744;DHT22;34538;48.836;9.174;2022-12-29T03:01:39;10.20;99.90
48744;DHT22;34538;48.836;9.174;2022-12-29T03:04:29;10.20;99.90
48744;DHT22;34538;48.836;9.174;2022-12-29T03:07:05;10.20;99.90
48744;DHT22;34538;48.836;9.174;2022-12-29T03:09:38;10.20;99.90
48744;DHT22;34538;48.836;9.174;2022-12-29T03:12:17;10.20;99.90
48744;DHT22;34538;48.836;9.174;2022-12-29T03:14:55;10.20;99.90
48744;DHT22;34538;48.836;9.174;2022-12-29T03:17:51;10.20;99.90
48744;DHT22;34538;48.836;9.174;2022-12-29T03:20:24;10.20;99.90
48744;DHT22;34538;48.836;9.174;2022-12-29T03:22:58;10.20;99.90
48744;DHT22;34538;48.836;9.174;2022-12-29T03:25:30;10.20;99.90
48744;DHT22;34538;48.836;9.174;2022-12-29T03:28:01;10.20;99.90
48744;DHT22;34538;48.836;9.174;2022-12-29T03:30:34;10.30;99.90
48744;DHT22;34538;48.836;9.174;2022-12-29T03:33:07;10.30;99.90
48744;DHT22;34538;48.836;9.174;2022-12-29T03:35:37;10.30;99.90
48744;DHT22;34538;48.836;9.174;2022-12-29T03:38:13;10.30;99.90
48744;DHT22;34538;48.836;9.174;2022-12-29T03:40:43;10.30;99.90
48744;DHT22;34538;48.836;9.174;2022-12-29T03:43:12;10.30;99.90
48744;DHT22;34538;48.836;9.174;2022-12-29T03:45:39;10.30;99.90
48744;DHT22;34538;48.836;9.174;2022-12-29T03:48:08;10.30;99.90
48744;DHT22;34538;48.836;9.174;2022-12-29T03:50:37;10.30;99.90
48744;DHT22;34538;48.836;9.174;2022-12-29T03:53:04;10.30;99.90
48744;DHT22;34538;48.836;9.174;2022-12-29T03:55:31;10.40;99.90
48744;DHT22;34538;48.836;9.174;2022-12-29T03:57:58;10.40;99.90
48744;DHT22;34538;48.836;9.174;2022-12-29T04:00:39;10.40;99.90
48744;DHT22;34538;48.836;9.174;2022-12-29T04:03:08;10.40;99.90
48744;DHT22;34538;48.836;9.174;2022-12-29T04:05:35;10.30;99.90
48744;DHT22;34538;48.836;9.174;2022-12-29T04:08:01;10.40;99.90
48744;DHT22;34538;48.836;9.174;2022-12-29T04:10:28;10.30;99.90
48744;DHT22;34538;48.836;9.174;2022-12-29T04:12:58;10.20;99.90
48744;DHT22;34538;48.836;9.174;2022-12-29T04:15:25;10.20;99.90
48744;DHT22;34538;48.836;9.174;2022-12-29T04:17:52;10.20;99.90
48744;DHT22;34538;48.836;9.174;2022-12-29T04:20:21;10.10;99.90
48744;DHT22;34538;48.836;9.174;2022-12-29T04:23:07;10.10;99.90
48744;DHT22;34538;48.836;9.174;2022-12-29T04:25:35;10.10;99.90
48744;DHT22;34538;48.836;9.174;2022-12-29T04:28:02;10.20;99.90
48744;DHT22;34538;48.836;9.174;2022-12-29T04:30:42;10.20;99.90
48744;DHT22;34538;48.836;9.174;2022-12-29T04:33:25;10.30;99.90
48744;DHT22;34538;48.836;9.174;2022-12-29T04:35:54;10.40;99.90
48744;DHT22;34538;48.836;9.174;2022-12-29T04:38:24;10.50;99.90
48744;DHT22;34538;48.836;9.174;2022-12-29T04:40:51;10.60;99.90
48744;DHT22;34538;48.836;9.174;2022-12-29T04:43:21;10.70;99.90
48744;DHT22;34538;48.836;9.174;2022-12-29T04:46:07;10.80;99.90
48744;DHT22;34538;48.836;9.174;2022-12-29T04:48:57;10.80;99.90
48744;DHT22;34538;48.836;9.174;2022-12-29T04:51:46;10.80;99.90
48744;DHT22;34538;48.836;9.174;2022-12-29T04:54:15;10.90;99.90
48744;DHT22;34538;48.836;9.174;2022-12-29T04:56:46;10.80;99.90
48744;DHT22;34538;48.836;9.174;2022-12-29T04:59:15;10.80;99.90
48744;DHT22;34538;48.836;9.174;2022-12-29T05:01:44;10.80;99.90
48744;DHT22;34538;48.836;9.174;2022-12-29T05:04:11;10.80;99.90
48744;DHT22;34538;48.836;9.174;2022-12-29T05:06:41;10.80;99.90
48744;DHT22;34538;48.836;9.174;2022-12-29T05:09:09;10.80;99.90
48744;DHT22;34538;48.836;9.174;2022-12-29T05:11:37;10.80;99.90
48744;DHT22;34538;48.836;9.174;2022-12-29T05:14:05;10.80;99.90
48744;DHT22;34538;48.836;9.174;2022-12-29T05:16:32;10.80;99.90
48744;DHT22;34538;48.836;9.174;2022-12-29T05:18:59;10.80;99.90
48744;DHT22;34538;48.836;9.174;2022-12-29T05:21:26;10.80;99.90
48744;DHT22;34538;48.836;9.174;2022-12-29T05:23:53;10.80;99.90
48744;DHT22;34538;48.836;9.174;2022-12-29T05:26:22;10.80;99.90
48744;DHT22;34538;48.836;9.174;2022-12-29T05:29:06;10.90;99.90
48744;DHT22;34538;48.836;9.174;2022-12-29T05:31:33;10.80;99.90
48744;DHT22;34538;48.836;9.174;2022-12-29T05:34:02;10.90;99.90
48744;DHT22;34538;48.836;9.174;2022-12-29T05:36:30;10.90;99.90
48744;DHT22;34538;48.836;9.174;2022-12-29T05:38:59;10.80;99.90
48744;DHT22;34538;48.836;9.174;2022-12-29T05:41:27;10.80;99.90
48744;DHT22;34538;48.836;9.174;2022-12-29T05:44:03;10.80;99.90
48744;DHT22;34538;48.836;9.174;2022-12-29T05:46:43;10.90;99.90
48744;DHT22;34538;48.836;9.174;2022-12-29T05:49:15;10.90;99.90
48744;DHT22;34538;48.836;9.174;2022-12-29T05:51:55;10.90;99.90
48744;DHT22;34538;48.836;9.174;2022-12-29T05:54:22;11.00;99.90
48744;DHT22;34538;48.836;9.174;2022-12-29T05:56:51;11.00;99.90
48744;DHT22;34538;48.836;9.174;2022-12-29T05:59:18;11.10;99.90
48744;DHT22;34538;48.836;9.174;2022-12-29T06:01:47;11.20;99.90
48744;DHT22;34538;48.836;9.174;2022-12-29T06:04:14;11.30;99.90
48744;DHT22;34538;48.836;9.174;2022-12-29T06:06:42;11.30;99.90
48744;DHT22;34538;48.836;9.174;2022-12-29T06:09:17;11.40;99.90
48744;DHT22;34538;48.836;9.174;2022-12-29T06:11:44;11.40;99.90
48744;DHT22;34538;48.836;9.174;2022-12-29T06:14:12;11.40;99.90
48744;DHT22;34538;48.836;9.174;2022-12-29T06:16:39;11.40;99.90
48744;DHT22;34538;48.836;9.174;2022-12-29T06:19:16;11.30;99.90
48744;DHT22;34538;48.836;9.174;2022-12-29T06:21:44;11.30;99.90
48744;DHT22;34538;48.836;9.174;2022-12-29T06:24:11;11.20;99.90
48744;DHT22;34538;48.836;9.174;2022-12-29T06:26:38;11.20;99.90
48744;DHT22;34538;48.836;9.174;2022-12-29T06:29:06;11.10;99.90
48744;DHT22;34538;48.836;9.174;2022-12-29T06:31:35;11.10;99.90
48744;DHT22;34538;48.836;9.174;2022-12-29T06:34:02;11.10;99.90
48744;DHT22;34538;48.836;9.174;2022-12-29T06:36:29;11.00;99.90
48744;DHT22;34538;48.836;9.174;2022-12-29T06:38:57;11.00;99.90
48744;DHT22;34538;48.836;9.174;2022-12-29T06:41:24;10.90;99.90
48744;DHT22;34538;48.836;9.174;2022-12-29T06:44:14;11.00;99.90
48744;DHT22;34538;48.836;9.174;2022-12-29T06:46:57;11.00;99.90
48744;DHT22;34538;48.836;9.174;2022-12-29T06:49:24;11.00;99.90
48744;DHT22;34538;48.836;9.174;2022-12-29T06:51:51;11.10;99.90
48744;DHT22;34538;48.836;9.174;2022-12-29T06:54:18;11.10;99.90
48744;DHT22;34538;48.836;9.174;2022-12-29T06:56:45;11.10;99.90
48744;DHT22;34538;48.836;9.174;2022-12-29T06:59:12;11.00;99.90
48744;DHT22;34538;48.836;9.174;2022-12-29T07:01:39;11.00;99.90
48744;DHT22;34538;48.836;9.174;2022-12-29T07:04:07;11.00;99.90
48744;DHT22;34538;48.836;9.174;2022-12-29T07:06:34;10.90;99.90
48744;DHT22;34538;48.836;9.174;2022-12-29T07:09:00;10.90;99.90
48744;DHT22;34538;48.836;9.174;2022-12-29T07:11:27;10.90;99.90
48744;DHT22;34538;48.836;9.174;2022-12-29T07:13:54;10.90;99.90
48744;DHT22;34538;48.836;9.174;2022-12-29T07:16:21;10.90;99.90
48744;DHT22;34538;48.836;9.174;2022-12-29T07:18:48;10.90;99.90
48744;DHT22;34538;48.836;9.174;2022-12-29T07:21:16;10.90;99.90
48744;DHT22;34538;48.836;9.174;2022-12-29T07:23:44;10.80;99.90
48744;DHT22;34538;48.836;9.174;2022-12-29T07:26:13;10.70;99.90
48744;DHT22;34538;48.836;9.174;2022-12-29T07:28:40;10.70;99.90
48744;DHT22;34538;48.836;9.174;2022-12-29T07:31:13;10.60;99.90
48744;DHT22;34538;48.836;9.174;2022-12-29T07:33:41;10.60;99.90
48744;DHT22;34538;48.836;9.174;2022-12-29T07:36:09;10.60;99.90
48744;DHT22;34538;48.836;9.174;2022-12-29T07:38:37;10.50;99.90
48744;DHT22;34538;48.836;9.174;2022-12-29T07:41:04;10.50;99.90
48744;DHT22;34538;48.836;9.174;2022-12-29T07:43:31;10.50;99.90
48744;DHT22;34538;48.836;9.174;2022-12-29T07:46:18;10.40;99.90
48744;DHT22;34538;48.836;9.174;2022-12-29T07:48:45;10.40;99.90
48744;DHT22;34538;48.836;9.174;2022-12-29T07:51:12;10.40;99.90
48744;DHT22;34538;48.836;9.174;2022-12-29T07:53:40;10.40;99.90
48744;DHT22;34538;48.836;9.174;2022-12-29T07:56:07;10.30;99.90
48744;DHT22;34538;48.836;9.174;2022-12-29T07:58:34;10.40;99.90
48744;DHT22;34538;48.836;9.174;2022-12-29T08:01:01;10.40;99.90
48744;DHT22;34538;48.836;9.174;2022-12-29T08:03:28;10.30;99.90
48744;DHT22;34538;48.836;9.174;2022-12-29T08:05:56;10.40;99.90
48744;DHT22;34538;48.836;9.174;2022-12-29T08:08:23;10.40;99.90
48744;DHT22;34538;48.836;9.174;2022-12-29T08:10:51;10.40;99.90
48744;DHT22;34538;48.836;9.174;2022-12-29T08:13:18;10.50;99.90
48744;DHT22;34538;48.836;9.174;2022-12-29T08:15:45;10.50;99.90
48744;DHT22;34538;48.836;9.174;2022-12-29T08:18:12;10.50;99.90
48744;DHT22;34538;48.836;9.174;2022-12-29T08:20:39;10.60;99.90
48744;DHT22;34538;48.836;9.174;2022-12-29T08:23:06;10.60;99.90
48744;DHT22;34538;48.836;9.174;2022-12-29T08:25:32;10.70;99.90
48744;DHT22;34538;48.836;9.174;2022-12-29T08:28:01;10.70;99.90
48744;DHT22;34538;48.836;9.174;2022-12-29T08:30:31;10.70;99.90
48744;DHT22;34538;48.836;9.174;2022-12-29T08:32:58;10.70;99.90
48744;DHT22;34538;48.836;9.174;2022-12-29T08:35:24;10.70;99.90
48744;DHT22;34538;48.836;9.174;2022-12-29T08:37:51;10.80;99.90
48744;DHT22;34538;48.836;9.174;2022-12-29T08:40:18;10.80;99.90
48744;DHT22;34538;48.836;9.174;2022-12-29T08:42:45;10.80;99.90
48744;DHT22;34538;48.836;9.174;2022-12-29T08:45:13;10.80;99.90
48744;DHT22;34538;48.836;9.174;2022-12-29T08:47:40;10.80;99.90
48744;DHT22;34538;48.836;9.174;2022-12-29T08:50:09;10.80;99.90
48744;DHT22;34538;48.836;9.174;2022-12-29T08:52:42;10.80;99.90
48744;DHT22;34538;48.836;9.174;2022-12-29T08:55:14;10.80;99.90
48744;DHT22;34538;48.836;9.174;2022-12-29T08:57:41;10.80;99.90
48744;DHT22;34538;48.836;9.174;2022-12-29T09:00:19;10.80;99.90
48744;DHT22;34538;48.836;9.174;2022-12-29T09:02:47;10.80;99.90
48744;DHT22;34538;48.836;9.174;2022-12-29T09:05:14;10.80;99.90
48744;DHT22;34538;48.836;9.174;2022-12-29T09:07:41;10.80;99.90
48744;DHT22;34538;48.836;9.174;2022-12-29T09:10:08;10.80;99.90
48744;DHT22;34538;48.836;9.174;2022-12-29T09:12:35;10.90;99.90
48744;DHT22;34538;48.836;9.174;2022-12-29T09:15:02;10.80;99.90
48744;DHT22;34538;48.836;9.174;2022-12-29T09:17:30;10.90;99.90
48744;DHT22;34538;48.836;9.174;2022-12-29T09:20:10;11.00;99.90
48744;DHT22;34538;48.836;9.174;2022-12-29T09:22:38;11.10;99.90
48744;DHT22;34538;48.836;9.174;2022-12-29T09:25:05;11.20;99.90
48744;DHT22;34538;48.836;9.174;2022-12-29T09:27:32;11.20;99.90
48744;DHT22;34538;48.836;9.174;2022-12-29T09:29:59;11.30;99.90
48744;DHT22;34538;48.836;9.174;2022-12-29T09:32:26;11.40;99.90
48744;DHT22;34538;48.836;9.174;2022-12-29T09:34:54;11.50;99.90
48744;DHT22;34538;48.836;9.174;2022-12-29T09:37:21;11.60;99.90
48744;DHT22;34538;48.836;9.174;2022-12-29T09:39:48;11.70;99.90
48744;DHT22;34538;48.836;9.174;2022-12-29T09:42:20;11.80;99.90
48744;DHT22;34538;48.836;9.174;2022-12-29T09:45:01;11.90;99.90
48744;DHT22;34538;48.836;9.174;2022-12-29T09:47:30;12.00;99.90
48744;DHT22;34538;48.836;9.174;2022-12-29T09:50:02;12.10;99.90
48744;DHT22;34538;48.836;9.174;2022-12-29T09:52:32;12.10;99.90
48744;DHT22;34538;48.836;9.174;2022-12-29T09:55:04;12.20;99.90
48744;DHT22;34538;48.836;9.174;2022-12-29T09:57:35;12.30;99.90
48744;DHT22;34538;48.836;9.174;2022-12-29T10:00:08;12.40;99.90
48744;DHT22;34538;48.836;9.174;2022-12-29T10:02:43;12.50;99.90
48744;DHT22;34538;48.836;9.174;2022-12-29T10:05:34;12.50;99.90
48744;DHT22;34538;48.836;9.174;2022-12-29T10:08:17;12.60;99.90
48744;DHT22;34538;48.836;9.174;2022-12-29T10:10:53;12.60;99.90
48744;DHT22;34538;48.836;9.174;2022-12-29T10:13:28;12.70;99.90
48744;DHT22;34538;48.836;9.174;2022-12-29T10:16:01;12.80;99.90
48744;DHT22;34538;48.836;9.174;2022-12-29T10:19:02;12.90;99.90
48744;DHT22;34538;48.836;9.174;2022-12-29T10:21:43;13.00;99.90
48744;DHT22;34538;48.836;9.174;2022-12-29T10:24:15;13.10;99.90
48744;DHT22;34538;48.836;9.174;2022-12-29T10:26:44;13.20;99.90
48744;DHT22;34538;48.836;9.174;2022-12-29T10:29:16;13.20;99.90
48744;DHT22;34538;48.836;9.174;2022-12-29T10:31:46;13.30;99.90
48744;DHT22;34538;48.836;9.174;2022-12-29T10:34:21;13.30;99.90
48744;DHT22;34538;48.836;9.174;2022-12-29T10:36:54;13.30;99.90
48744;DHT22;34538;48.836;9.174;2022-12-29T10:39:28;13.40;99.90
48744;DHT22;34538;48.836;9.174;2022-12-29T10:42:01;13.50;99.90
48744;DHT22;34538;48.836;9.174;2022-12-29T10:44:31;13.50;99.90
48744;DHT22;34538;48.836;9.174;2022-12-29T10:47:04;13.50;99.90
48744;DHT22;34538;48.836;9.174;2022-12-29T10:49:37;13.50;99.90
48744;DHT22;34538;48.836;9.174;2022-12-29T10:52:10;13.50;99.90
48744;DHT22;34538;48.836;9.174;2022-12-29T10:54:44;13.60;99.90
48744;DHT22;34538;48.836;9.174;2022-12-29T10:57:18;13.60;99.90
48744;DHT22;34538;48.836;9.174;2022-12-29T10:59:47;13.70;99.90
48744;DHT22;34538;48.836;9.174;2022-12-29T11:02:45;13.70;99.90
48744;DHT22;34538;48.836;9.174;2022-12-29T11:05:22;13.80;99.90
48744;DHT22;34538;48.836;9.174;2022-12-29T11:07:56;13.80;99.90
48744;DHT22;34538;48.836;9.174;2022-12-29T11:10:30;13.90;99.90
48744;DHT22;34538;48.836;9.174;2022-12-29T11:13:03;13.90;99.90
48744;DHT22;34538;48.836;9.174;2022-12-29T11:15:39;14.00;99.90
48744;DHT22;34538;48.836;9.174;2022-12-29T11:18:23;14.00;99.90
48744;DHT22;34538;48.836;9.174;2022-12-29T11:20:52;14.00;99.90
48744;DHT22;34538;48.836;9.174;2022-12-29T11:23:27;14.10;99.90
48744;DHT22;34538;48.836;9.174;2022-12-29T11:26:11;14.10;99.90
48744;DHT22;34538;48.836;9.174;2022-12-29T11:28:41;14.10;99.90
48744;DHT22;34538;48.836;9.174;2022-12-29T11:31:09;14.10;99.90
48744;DHT22;34538;48.836;9.174;2022-12-29T11:33:38;14.10;99.90
48744;DHT22;34538;48.836;9.174;2022-12-29T11:36:07;14.10;99.90
48744;DHT22;34538;48.836;9.174;2022-12-29T11:38:40;14.10;99.90
48744;DHT22;34538;48.836;9.174;2022-12-29T11:41:12;14.00;99.90
48744;DHT22;34538;48.836;9.174;2022-12-29T11:43:42;14.00;99.90
48744;DHT22;34538;48.836;9.174;2022-12-29T11:46:14;13.90;99.90
48744;DHT22;34538;48.836;9.174;2022-12-29T11:48:43;13.90;99.90
48744;DHT22;34538;48.836;9.174;2022-12-29T11:51:11;13.90;99.90
48744;DHT22;34538;48.836;9.174;2022-12-29T11:53:43;13.90;99.90
48744;DHT22;34538;48.836;9.174;2022-12-29T11:56:15;13.80;99.90
48744;DHT22;34538;48.836;9.174;2022-12-29T11:58:43;13.80;99.90
48744;DHT22;34538;48.836;9.174;2022-12-29T12:01:15;13.90;99.90
48744;DHT22;34538;48.836;9.174;2022-12-29T12:03:47;13.80;99.90
48744;DHT22;34538;48.836;9.174;2022-12-29T12:06:16;13.70;99.90
48744;DHT22;34538;48.836;9.174;2022-12-29T12:08:53;13.60;99.90
48744;DHT22;34538;48.836;9.174;2022-12-29T12:11:23;13.50;99.90
48744;DHT22;34538;48.836;9.174;2022-12-29T12:13:57;13.40;99.90
48744;DHT22;34538;48.836;9.174;2022-12-29T12:16:35;13.20;99.90
48744;DHT22;34538;48.836;9.174;2022-12-29T12:19:12;13.10;99.90
48744;DHT22;34538;48.836;9.174;2022-12-29T12:21:43;13.00;99.90
48744;DHT22;34538;48.836;9.174;2022-12-29T12:24:18;13.00;99.90
48744;DHT22;34538;48.836;9.174;2022-12-29T12:26:55;12.90;99.90
48744;DHT22;34538;48.836;9.174;2022-12-29T12:29:26;13.00;99.90
48744;DHT22;34538;48.836;9.174;2022-12-29T12:31:59;13.00;99.90
48744;DHT22;34538;48.836;9.174;2022-12-29T12:34:28;12.90;99.90
48744;DHT22;34538;48.836;9.174;2022-12-29T12:37:14;12.90;99.90
48744;DHT22;34538;48.836;9.174;2022-12-29T12:39:49;12.90;99.90
48744;DHT22;34538;48.836;9.174;2022-12-29T12:42:33;13.00;99.90
48744;DHT22;34538;48.836;9.174;2022-12-29T12:45:27;13.00;99.90
48744;DHT22;34538;48.836;9.174;2022-12-29T12:48:09;13.10;99.90
48744;DHT22;34538;48.836;9.174;2022-12-29T12:50:49;13.10;99.90
48744;DHT22;34538;48.836;9.174;2022-12-29T12:53:36;13.20;99.90
48744;DHT22;34538;48.836;9.174;2022-12-29T12:56:23;13.20;99.90
48744;DHT22;34538;48.836;9.174;2022-12-29T12:58:58;13.20;99.90
48744;DHT22;34538;48.836;9.174;2022-12-29T13:01:37;13.30;99.90
48744;DHT22;34538;48.836;9.174;2022-12-29T13:04:28;13.40;99.90
48744;DHT22;34538;48.836;9.174;2022-12-29T13:07:07;13.50;99.90
48744;DHT22;34538;48.836;9.174;2022-12-29T13:09:52;13.50;99.90
48744;DHT22;34538;48.836;9.174;2022-12-29T13:12:33;13.60;99.90
48744;DHT22;34538;48.836;9.174;2022-12-29T13:15:16;13.60;99.90
48744;DHT22;34538;48.836;9.174;2022-12-29T13:17:48;13.60;99.90
48744;DHT22;34538;48.836;9.174;2022-12-29T13:20:25;13.60;99.90
48744;DHT22;34538;48.836;9.174;2022-12-29T13:22:59;13.60;99.90
48744;DHT22;34538;48.836;9.174;2022-12-29T13:25:35;13.50;99.90
48744;DHT22;34538;48.836;9.174;2022-12-29T13:28:10;13.50;99.90
48744;DHT22;34538;48.836;9.174;2022-12-29T13:30:44;13.50;99.90
48744;DHT22;34538;48.836;9.174;2022-12-29T13:33:20;13.50;99.90
48744;DHT22;34538;48.836;9.174;2022-12-29T13:35:56;13.40;99.90
48744;DHT22;34538;48.836;9.174;2022-12-29T13:38:30;13.40;99.90
48744;DHT22;34538;48.836;9.174;2022-12-29T13:41:02;13.30;99.90
48744;DHT22;34538;48.836;9.174;2022-12-29T13:43:33;13.30;99.90
48744;DHT22;34538;48.836;9.174;2022-12-29T13:46:05;13.20;99.90
48744;DHT22;34538;48.836;9.174;2022-12-29T13:48:40;13.20;99.90
48744;DHT22;34538;48.836;9.174;2022-12-29T13:51:10;13.20;99.90
48744;DHT22;34538;48.836;9.174;2022-12-29T13:53:48;13.20;99.90
48744;DHT22;34538;48.836;9.174;2022-12-29T13:56:22;13.20;99.90
48744;DHT22;34538;48.836;9.174;2022-12-29T13:58:56;13.10;99.90
48744;DHT22;34538;48.836;9.174;2022-12-29T14:01:28;13.10;99.90
48744;DHT22;34538;48.836;9.174;2022-12-29T14:03:58;13.10;99.90
48744;DHT22;34538;48.836;9.174;2022-12-29T14:06:26;13.10;99.90
48744;DHT22;34538;48.836;9.174;2022-12-29T14:08:56;13.10;99.90
48744;DHT22;34538;48.836;9.174;2022-12-29T14:11:30;13.10;99.90
48744;DHT22;34538;48.836;9.174;2022-12-29T14:13:59;13.10;99.90
48744;DHT22;34538;48.836;9.174;2022-12-29T14:16:40;13.10;99.90
48744;DHT22;34538;48.836;9.174;2022-12-29T14:19:18;13.10;99.90
48744;DHT22;34538;48.836;9.174;2022-12-29T14:21:51;13.00;99.90
48744;DHT22;34538;48.836;9.174;2022-12-29T14:24:45;13.00;99.90
48744;DHT22;34538;48.836;9.174;2022-12-29T14:27:50;12.90;99.90
48744;DHT22;34538;48.836;9.174;2022-12-29T14:30:52;12.90;99.90
48744;DHT22;34538;48.836;9.174;2022-12-29T14:33:20;12.90;99.90
48744;DHT22;34538;48.836;9.174;2022-12-29T14:35:49;12.90;99.90
48744;DHT22;34538;48.836;9.174;2022-12-29T14:38:26;12.90;99.90
48744;DHT22;34538;48.836;9.174;2022-12-29T14:41:22;12.90;99.90
48744;DHT22;34538;48.836;9.174;2022-12-29T14:43:53;12.80;99.90
48744;DHT22;34538;48.836;9.174;2022-12-29T14:46:21;12.80;99.90
48744;DHT22;34538;48.836;9.174;2022-12-29T14:48:55;12.80;99.90
48744;DHT22;34538;48.836;9.174;2022-12-29T14:51:34;12.70;99.90
48744;DHT22;34538;48.836;9.174;2022-12-29T14:57:09;12.70;99.90
48744;DHT22;34538;48.836;9.174;2022-12-29T14:59:38;12.70;99.90
48744;DHT22;34538;48.836;9.174;2022-12-29T15:02:14;12.60;99.90
48744;DHT22;34538;48.836;9.174;2022-12-29T15:04:42;12.60;99.90
48744;DHT22;34538;48.836;9.174;2022-12-29T15:07:10;12.60;99.90
48744;DHT22;34538;48.836;9.174;2022-12-29T15:09:41;12.60;99.90
48744;DHT22;34538;48.836;9.174;2022-12-29T15:12:20;12.60;99.90
48744;DHT22;34538;48.836;9.174;2022-12-29T15:14:53;12.50;99.90
48744;DHT22;34538;48.836;9.174;2022-12-29T15:17:26;12.50;99.90
48744;DHT22;34538;48.836;9.174;2022-12-29T15:19:54;12.40;99.90
48744;DHT22;34538;48.836;9.174;2022-12-29T15:22:22;12.40;99.90
48744;DHT22;34538;48.836;9.174;2022-12-29T15:24:50;12.30;99.90
48744;DHT22;34538;48.836;9.174;2022-12-29T15:27:21;12.30;99.90
48744;DHT22;34538;48.836;9.174;2022-12-29T15:29:56;12.20;99.90
48744;DHT22;34538;48.836;9.174;2022-12-29T15:32:25;12.20;99.90
48744;DHT22;34538;48.836;9.174;2022-12-29T15:34:53;12.20;99.90
48744;DHT22;34538;48.836;9.174;2022-12-29T15:37:23;12.20;99.90
48744;DHT22;34538;48.836;9.174;2022-12-29T15:39:51;12.20;99.90
48744;DHT22;34538;48.836;9.174;2022-12-29T15:45:11;12.20;99.90
48744;DHT22;34538;48.836;9.174;2022-12-29T15:47:40;11.90;99.90
48744;DHT22;34538;48.836;9.174;2022-12-29T15:50:15;11.60;99.90
48744;DHT22;34538;48.836;9.174;2022-12-29T15:52:46;11.20;99.90
48744;DHT22;34538;48.836;9.174;2022-12-29T15:55:20;10.80;99.90
48744;DHT22;34538;48.836;9.174;2022-12-29T15:57:49;10.60;99.90
48744;DHT22;34538;48.836;9.174;2022-12-29T16:00:24;10.40;99.90
48744;DHT22;34538;48.836;9.174;2022-12-29T16:02:52;10.20;99.90
48744;DHT22;34538;48.836;9.174;2022-12-29T16:05:20;10.10;99.90
48744;DHT22;34538;48.836;9.174;2022-12-29T16:07:54;10.00;99.90
48744;DHT22;34538;48.836;9.174;2022-12-29T16:10:26;10.00;99.90
48744;DHT22;34538;48.836;9.174;2022-12-29T16:13:02;9.90;99.90
48744;DHT22;34538;48.836;9.174;2022-12-29T16:15:29;9.90;99.90
48744;DHT22;34538;48.836;9.174;2022-12-29T16:17:57;9.90;99.90